Port Moresby/Jacksons International Airport

Airport
ICAO code: 
AYPY
IATA Code: 
POM
Summary
ICAO Region: 
APAC
Territory: 
Location: 
Port Moresby, National Capital
Serving: 
Port Moresby
Elevation: 
146 ft
Coordinates: 
Aerial View: 
9° 26' 27.163" S, 147° 13' 11.798" E
Airport BS: 
Bird Strike
Metar
Observation
AYPY 261000Z 30005KT 9999 BKN150 26/25 Q1008=
Station
Moresby
Date/Time
2022-01-26 10:00:00
Wind direction
300°
Wind speed
05 kts
Lowest cloud amount
broken clouds
Temperature
26°C
Dew point
25°C
Humidity
94%
QNH
1008 hPa
Weather condition
n/a

Description

Jacksons International Airport, also known as Port Moresby Airport, it is located 8 km outside Port Moresby, in Papua New Guinea. It is the largest airport in Papua New Guinea and is the main hub for Air Niugini, the national airline of Papua New Guinea, as well as the main hub for Airlines PNG.

Climatology

Tropical Rainforest climate (Köppen climate classification Af) - almost no distinct seasons, average daily temperature around 27°C throughout the year. Extensive cloud cover and heavy rainfall prevent temperatures from rising much over 33°C. The diurnal temperature change is between 2°C and 5°C which is greater than the annual temperature range of 2°C. Rainfall is heavy and is usually convectional and in the afternoon.

Runways

Designator Length Width Surface Rops
14R/32L 2066 45 ASP Yes/Yes
14L/32R 2750 45 ASP Yes/Yes
Airport map: 
Aerial View: 

SKYbrary Partners:

Safety knowledge contributed by: